sensor_id;sensor_type;location;lat;lon;timestamp;P1;durP1;ratioP1;P2;durP2;ratioP2
24419;SDS011;12599;52.426;13.330;2022-08-03T00:01:54;5.07;;;3.60;;
24419;SDS011;12599;52.426;13.330;2022-08-03T00:04:19;7.07;;;3.23;;
24419;SDS011;12599;52.426;13.330;2022-08-03T00:06:45;4.47;;;3.10;;
24419;SDS011;12599;52.426;13.330;2022-08-03T00:09:10;6.50;;;3.13;;
24419;SDS011;12599;52.426;13.330;2022-08-03T00:11:36;5.17;;;3.30;;
24419;SDS011;12599;52.426;13.330;2022-08-03T00:14:02;6.20;;;3.40;;
24419;SDS011;12599;52.426;13.330;2022-08-03T00:16:31;7.80;;;3.40;;
24419;SDS011;12599;52.426;13.330;2022-08-03T00:18:57;6.93;;;3.83;;
24419;SDS011;12599;52.426;13.330;2022-08-03T00:21:22;6.17;;;3.53;;
24419;SDS011;12599;52.426;13.330;2022-08-03T00:23:48;7.37;;;3.83;;
24419;SDS011;12599;52.426;13.330;2022-08-03T00:26:14;5.33;;;3.23;;
24419;SDS011;12599;52.426;13.330;2022-08-03T00:28:39;6.67;;;3.20;;
24419;SDS011;12599;52.426;13.330;2022-08-03T00:31:06;7.00;;;3.20;;
24419;SDS011;12599;52.426;13.330;2022-08-03T00:33:31;6.87;;;3.40;;
24419;SDS011;12599;52.426;13.330;2022-08-03T00:35:57;7.83;;;3.10;;
24419;SDS011;12599;52.426;13.330;2022-08-03T00:38:23;5.63;;;3.27;;
24419;SDS011;12599;52.426;13.330;2022-08-03T00:40:48;9.37;;;3.90;;
24419;SDS011;12599;52.426;13.330;2022-08-03T00:43:14;4.77;;;3.40;;
24419;SDS011;12599;52.426;13.330;2022-08-03T00:45:40;7.80;;;3.50;;
24419;SDS011;12599;52.426;13.330;2022-08-03T00:48:07;8.77;;;4.03;;
24419;SDS011;12599;52.426;13.330;2022-08-03T00:50:35;5.13;;;3.30;;
24419;SDS011;12599;52.426;13.330;2022-08-03T00:53:04;6.00;;;3.63;;
24419;SDS011;12599;52.426;13.330;2022-08-03T00:55:31;5.60;;;3.20;;
24419;SDS011;12599;52.426;13.330;2022-08-03T00:57:57;5.93;;;3.23;;
24419;SDS011;12599;52.426;13.330;2022-08-03T01:00:24;6.70;;;3.47;;
24419;SDS011;12599;52.426;13.330;2022-08-03T01:02:51;5.97;;;3.67;;
24419;SDS011;12599;52.426;13.330;2022-08-03T01:05:18;4.50;;;3.30;;
24419;SDS011;12599;52.426;13.330;2022-08-03T01:07:48;5.73;;;3.60;;
24419;SDS011;12599;52.426;13.330;2022-08-03T01:13:31;4.23;;;3.03;;
24419;SDS011;12599;52.426;13.330;2022-08-03T01:16:05;4.13;;;3.10;;
24419;SDS011;12599;52.426;13.330;2022-08-03T01:21:33;7.57;;;3.70;;
24419;SDS011;12599;52.426;13.330;2022-08-03T01:27:33;6.60;;;3.13;;
24419;SDS011;12599;52.426;13.330;2022-08-03T01:30:16;5.17;;;3.00;;
24419;SDS011;12599;52.426;13.330;2022-08-03T01:32:47;8.17;;;3.73;;
24419;SDS011;12599;52.426;13.330;2022-08-03T01:35:53;6.27;;;3.20;;
24419;SDS011;12599;52.426;13.330;2022-08-03T01:38:17;8.60;;;3.53;;
24419;SDS011;12599;52.426;13.330;2022-08-03T01:40:48;8.77;;;3.47;;
24419;SDS011;12599;52.426;13.330;2022-08-03T01:43:18;6.37;;;3.40;;
24419;SDS011;12599;52.426;13.330;2022-08-03T01:45:45;6.57;;;3.43;;
24419;SDS011;12599;52.426;13.330;2022-08-03T01:48:12;8.57;;;3.60;;
24419;SDS011;12599;52.426;13.330;2022-08-03T01:50:41;4.63;;;3.33;;
24419;SDS011;12599;52.426;13.330;2022-08-03T01:53:07;5.33;;;3.23;;
24419;SDS011;12599;52.426;13.330;2022-08-03T01:55:34;6.20;;;3.70;;
24419;SDS011;12599;52.426;13.330;2022-08-03T01:58:02;7.00;;;3.53;;
24419;SDS011;12599;52.426;13.330;2022-08-03T02:00:28;6.33;;;3.17;;
24419;SDS011;12599;52.426;13.330;2022-08-03T02:02:55;6.47;;;3.33;;
24419;SDS011;12599;52.426;13.330;2022-08-03T02:05:22;4.93;;;3.17;;
24419;SDS011;12599;52.426;13.330;2022-08-03T02:07:50;5.13;;;3.07;;
24419;SDS011;12599;52.426;13.330;2022-08-03T02:10:17;8.17;;;3.30;;
24419;SDS011;12599;52.426;13.330;2022-08-03T02:12:45;6.27;;;3.90;;
24419;SDS011;12599;52.426;13.330;2022-08-03T02:15:14;3.50;;;3.17;;
24419;SDS011;12599;52.426;13.330;2022-08-03T02:17:43;5.07;;;3.33;;
24419;SDS011;12599;52.426;13.330;2022-08-03T02:20:11;4.70;;;3.30;;
24419;SDS011;12599;52.426;13.330;2022-08-03T02:22:38;5.47;;;3.23;;
24419;SDS011;12599;52.426;13.330;2022-08-03T02:25:06;7.03;;;3.37;;
24419;SDS011;12599;52.426;13.330;2022-08-03T02:27:36;5.43;;;3.60;;
24419;SDS011;12599;52.426;13.330;2022-08-03T02:30:06;8.50;;;3.80;;
24419;SDS011;12599;52.426;13.330;2022-08-03T02:32:34;6.37;;;3.10;;
24419;SDS011;12599;52.426;13.330;2022-08-03T02:35:03;4.23;;;3.47;;
24419;SDS011;12599;52.426;13.330;2022-08-03T02:37:33;6.90;;;3.80;;
24419;SDS011;12599;52.426;13.330;2022-08-03T02:40:05;7.07;;;3.80;;
24419;SDS011;12599;52.426;13.330;2022-08-03T02:42:33;4.77;;;3.30;;
24419;SDS011;12599;52.426;13.330;2022-08-03T02:45:01;8.50;;;3.63;;
24419;SDS011;12599;52.426;13.330;2022-08-03T02:47:29;4.27;;;3.27;;
24419;SDS011;12599;52.426;13.330;2022-08-03T02:49:56;5.30;;;3.57;;
24419;SDS011;12599;52.426;13.330;2022-08-03T02:52:25;7.87;;;3.43;;
24419;SDS011;12599;52.426;13.330;2022-08-03T02:54:55;9.73;;;3.77;;
24419;SDS011;12599;52.426;13.330;2022-08-03T02:57:23;3.80;;;3.50;;
24419;SDS011;12599;52.426;13.330;2022-08-03T02:59:55;5.53;;;3.57;;
24419;SDS011;12599;52.426;13.330;2022-08-03T03:02:22;7.83;;;3.80;;
24419;SDS011;12599;52.426;13.330;2022-08-03T03:04:49;9.97;;;3.53;;
24419;SDS011;12599;52.426;13.330;2022-08-03T03:07:16;10.17;;;3.93;;
24419;SDS011;12599;52.426;13.330;2022-08-03T03:09:42;6.10;;;3.47;;
24419;SDS011;12599;52.426;13.330;2022-08-03T03:12:09;5.17;;;3.60;;
24419;SDS011;12599;52.426;13.330;2022-08-03T03:14:37;6.70;;;3.43;;
24419;SDS011;12599;52.426;13.330;2022-08-03T03:17:03;6.13;;;4.13;;
24419;SDS011;12599;52.426;13.330;2022-08-03T03:19:31;7.33;;;3.83;;
24419;SDS011;12599;52.426;13.330;2022-08-03T03:22:01;8.60;;;4.67;;
24419;SDS011;12599;52.426;13.330;2022-08-03T03:24:30;5.77;;;3.60;;
24419;SDS011;12599;52.426;13.330;2022-08-03T03:26:57;9.17;;;3.70;;
24419;SDS011;12599;52.426;13.330;2022-08-03T03:29:23;5.57;;;3.93;;
24419;SDS011;12599;52.426;13.330;2022-08-03T03:31:49;7.47;;;4.40;;
24419;SDS011;12599;52.426;13.330;2022-08-03T03:34:15;6.00;;;4.10;;
24419;SDS011;12599;52.426;13.330;2022-08-03T03:36:42;6.57;;;4.10;;
24419;SDS011;12599;52.426;13.330;2022-08-03T03:39:07;5.57;;;4.00;;
24419;SDS011;12599;52.426;13.330;2022-08-03T03:41:34;6.63;;;3.80;;
24419;SDS011;12599;52.426;13.330;2022-08-03T03:44:00;7.20;;;3.63;;
24419;SDS011;12599;52.426;13.330;2022-08-03T03:46:26;10.80;;;4.33;;
24419;SDS011;12599;52.426;13.330;2022-08-03T03:48:52;6.47;;;3.93;;
24419;SDS011;12599;52.426;13.330;2022-08-03T03:51:18;7.23;;;4.53;;
24419;SDS011;12599;52.426;13.330;2022-08-03T03:53:53;6.17;;;4.27;;
24419;SDS011;12599;52.426;13.330;2022-08-03T03:56:20;6.37;;;4.20;;
24419;SDS011;12599;52.426;13.330;2022-08-03T03:58:45;7.57;;;3.97;;
24419;SDS011;12599;52.426;13.330;2022-08-03T04:01:11;5.50;;;3.93;;
24419;SDS011;12599;52.426;13.330;2022-08-03T04:03:37;5.93;;;4.60;;
24419;SDS011;12599;52.426;13.330;2022-08-03T04:06:03;7.37;;;4.20;;
24419;SDS011;12599;52.426;13.330;2022-08-03T04:08:47;9.30;;;4.60;;
24419;SDS011;12599;52.426;13.330;2022-08-03T04:11:38;6.73;;;4.87;;
24419;SDS011;12599;52.426;13.330;2022-08-03T04:16:58;6.70;;;5.03;;
24419;SDS011;12599;52.426;13.330;2022-08-03T04:19:27;8.77;;;5.03;;
24419;SDS011;12599;52.426;13.330;2022-08-03T04:22:04;10.93;;;5.17;;
24419;SDS011;12599;52.426;13.330;2022-08-03T04:24:39;8.03;;;4.87;;
24419;SDS011;12599;52.426;13.330;2022-08-03T04:27:08;9.77;;;5.00;;
24419;SDS011;12599;52.426;13.330;2022-08-03T04:29:36;11.17;;;4.90;;
24419;SDS011;12599;52.426;13.330;2022-08-03T04:32:05;12.57;;;5.53;;
24419;SDS011;12599;52.426;13.330;2022-08-03T04:34:33;14.83;;;5.50;;
24419;SDS011;12599;52.426;13.330;2022-08-03T04:37:00;12.03;;;5.00;;
24419;SDS011;12599;52.426;13.330;2022-08-03T04:39:30;15.03;;;5.90;;
24419;SDS011;12599;52.426;13.330;2022-08-03T04:42:03;12.00;;;5.37;;
24419;SDS011;12599;52.426;13.330;2022-08-03T04:44:34;9.60;;;5.33;;
24419;SDS011;12599;52.426;13.330;2022-08-03T04:47:05;12.50;;;5.80;;
24419;SDS011;12599;52.426;13.330;2022-08-03T04:49:32;9.53;;;5.20;;
24419;SDS011;12599;52.426;13.330;2022-08-03T04:52:00;8.47;;;5.27;;
24419;SDS011;12599;52.426;13.330;2022-08-03T04:54:26;14.23;;;5.53;;
24419;SDS011;12599;52.426;13.330;2022-08-03T04:56:52;13.30;;;5.20;;
24419;SDS011;12599;52.426;13.330;2022-08-03T04:59:17;10.37;;;5.07;;
24419;SDS011;12599;52.426;13.330;2022-08-03T05:01:43;13.10;;;5.30;;
24419;SDS011;12599;52.426;13.330;2022-08-03T05:04:08;9.43;;;5.30;;
24419;SDS011;12599;52.426;13.330;2022-08-03T05:06:34;8.73;;;5.00;;
24419;SDS011;12599;52.426;13.330;2022-08-03T05:09:00;9.30;;;4.93;;
24419;SDS011;12599;52.426;13.330;2022-08-03T05:11:26;7.43;;;4.53;;
24419;SDS011;12599;52.426;13.330;2022-08-03T05:13:51;9.73;;;4.40;;
24419;SDS011;12599;52.426;13.330;2022-08-03T05:16:17;6.50;;;4.70;;
24419;SDS011;12599;52.426;13.330;2022-08-03T05:18:43;10.23;;;4.20;;
24419;SDS011;12599;52.426;13.330;2022-08-03T05:21:10;6.37;;;4.13;;
24419;SDS011;12599;52.426;13.330;2022-08-03T05:23:38;7.37;;;4.40;;
24419;SDS011;12599;52.426;13.330;2022-08-03T05:26:04;5.13;;;3.80;;
24419;SDS011;12599;52.426;13.330;2022-08-03T05:28:30;5.20;;;4.20;;
24419;SDS011;12599;52.426;13.330;2022-08-03T05:30:55;5.73;;;3.97;;
24419;SDS011;12599;52.426;13.330;2022-08-03T05:33:21;5.97;;;3.90;;
24419;SDS011;12599;52.426;13.330;2022-08-03T05:35:47;6.80;;;3.90;;
24419;SDS011;12599;52.426;13.330;2022-08-03T05:38:12;6.63;;;4.03;;
24419;SDS011;12599;52.426;13.330;2022-08-03T05:40:38;5.57;;;3.67;;
24419;SDS011;12599;52.426;13.330;2022-08-03T05:43:03;5.43;;;3.73;;
24419;SDS011;12599;52.426;13.330;2022-08-03T05:45:29;4.57;;;3.20;;
24419;SDS011;12599;52.426;13.330;2022-08-03T05:47:54;8.53;;;3.63;;
24419;SDS011;12599;52.426;13.330;2022-08-03T05:50:20;4.43;;;3.23;;
24419;SDS011;12599;52.426;13.330;2022-08-03T05:52:46;5.50;;;3.30;;
24419;SDS011;12599;52.426;13.330;2022-08-03T05:55:11;8.53;;;3.77;;
24419;SDS011;12599;52.426;13.330;2022-08-03T05:57:38;5.37;;;3.10;;
24419;SDS011;12599;52.426;13.330;2022-08-03T06:00:04;2.83;;;2.53;;
24419;SDS011;12599;52.426;13.330;2022-08-03T06:02:35;5.50;;;3.20;;
24419;SDS011;12599;52.426;13.330;2022-08-03T06:05:01;5.33;;;3.20;;
24419;SDS011;12599;52.426;13.330;2022-08-03T06:07:27;8.13;;;3.23;;
24419;SDS011;12599;52.426;13.330;2022-08-03T06:09:53;4.93;;;2.83;;
24419;SDS011;12599;52.426;13.330;2022-08-03T06:12:19;5.53;;;2.83;;
24419;SDS011;12599;52.426;13.330;2022-08-03T06:14:44;6.87;;;3.20;;
24419;SDS011;12599;52.426;13.330;2022-08-03T06:17:10;6.50;;;3.13;;
24419;SDS011;12599;52.426;13.330;2022-08-03T06:19:36;4.63;;;3.33;;
24419;SDS011;12599;52.426;13.330;2022-08-03T06:22:02;6.13;;;2.90;;
24419;SDS011;12599;52.426;13.330;2022-08-03T06:24:28;4.23;;;2.60;;
24419;SDS011;12599;52.426;13.330;2022-08-03T06:26:54;3.33;;;2.70;;
24419;SDS011;12599;52.426;13.330;2022-08-03T06:29:19;7.97;;;2.80;;
24419;SDS011;12599;52.426;13.330;2022-08-03T06:31:45;5.77;;;2.80;;
24419;SDS011;12599;52.426;13.330;2022-08-03T06:34:10;3.63;;;2.57;;
24419;SDS011;12599;52.426;13.330;2022-08-03T06:36:36;5.17;;;2.23;;
24419;SDS011;12599;52.426;13.330;2022-08-03T06:39:02;5.17;;;2.40;;
24419;SDS011;12599;52.426;13.330;2022-08-03T06:41:28;5.30;;;2.30;;
24419;SDS011;12599;52.426;13.330;2022-08-03T06:43:54;3.60;;;2.03;;
24419;SDS011;12599;52.426;13.330;2022-08-03T06:46:19;4.67;;;2.17;;
24419;SDS011;12599;52.426;13.330;2022-08-03T06:48:45;3.53;;;2.20;;
24419;SDS011;12599;52.426;13.330;2022-08-03T06:51:10;4.70;;;2.30;;
24419;SDS011;12599;52.426;13.330;2022-08-03T06:53:36;4.10;;;2.30;;
24419;SDS011;12599;52.426;13.330;2022-08-03T06:56:05;5.97;;;2.40;;
24419;SDS011;12599;52.426;13.330;2022-08-03T06:58:31;6.43;;;2.67;;
24419;SDS011;12599;52.426;13.330;2022-08-03T07:00:57;10.03;;;2.17;;
24419;SDS011;12599;52.426;13.330;2022-08-03T07:03:23;4.67;;;2.37;;
24419;SDS011;12599;52.426;13.330;2022-08-03T07:05:49;6.87;;;2.60;;
24419;SDS011;12599;52.426;13.330;2022-08-03T07:08:15;6.17;;;2.10;;
24419;SDS011;12599;52.426;13.330;2022-08-03T07:10:41;5.47;;;2.33;;
24419;SDS011;12599;52.426;13.330;2022-08-03T07:13:07;4.20;;;1.80;;
24419;SDS011;12599;52.426;13.330;2022-08-03T07:15:33;5.43;;;2.07;;
24419;SDS011;12599;52.426;13.330;2022-08-03T07:17:59;6.23;;;2.33;;
24419;SDS011;12599;52.426;13.330;2022-08-03T07:20:24;3.33;;;1.67;;
24419;SDS011;12599;52.426;13.330;2022-08-03T07:22:50;5.40;;;2.03;;
24419;SDS011;12599;52.426;13.330;2022-08-03T07:25:16;6.37;;;2.60;;
24419;SDS011;12599;52.426;13.330;2022-08-03T07:27:45;3.23;;;2.13;;
24419;SDS011;12599;52.426;13.330;2022-08-03T07:30:11;4.60;;;2.07;;
24419;SDS011;12599;52.426;13.330;2022-08-03T07:32:38;4.57;;;2.07;;
24419;SDS011;12599;52.426;13.330;2022-08-03T07:35:04;3.90;;;1.70;;
24419;SDS011;12599;52.426;13.330;2022-08-03T07:37:31;5.67;;;1.93;;
24419;SDS011;12599;52.426;13.330;2022-08-03T07:39:57;4.77;;;2.13;;
24419;SDS011;12599;52.426;13.330;2022-08-03T07:42:24;4.17;;;2.43;;
24419;SDS011;12599;52.426;13.330;2022-08-03T07:44:50;5.73;;;2.10;;
24419;SDS011;12599;52.426;13.330;2022-08-03T07:47:20;2.20;;;2.00;;
24419;SDS011;12599;52.426;13.330;2022-08-03T07:49:48;5.83;;;2.27;;
24419;SDS011;12599;52.426;13.330;2022-08-03T07:52:14;5.50;;;2.13;;
24419;SDS011;12599;52.426;13.330;2022-08-03T07:54:58;6.57;;;2.53;;
24419;SDS011;12599;52.426;13.330;2022-08-03T07:57:23;4.47;;;2.10;;
24419;SDS011;12599;52.426;13.330;2022-08-03T07:59:49;5.37;;;2.20;;
24419;SDS011;12599;52.426;13.330;2022-08-03T08:02:14;5.53;;;2.43;;
24419;SDS011;12599;52.426;13.330;2022-08-03T08:04:40;7.27;;;2.57;;
24419;SDS011;12599;52.426;13.330;2022-08-03T08:07:06;3.60;;;2.17;;
24419;SDS011;12599;52.426;13.330;2022-08-03T08:09:32;8.53;;;2.70;;
24419;SDS011;12599;52.426;13.330;2022-08-03T08:11:58;5.97;;;2.10;;
24419;SDS011;12599;52.426;13.330;2022-08-03T08:14:23;5.07;;;1.97;;
24419;SDS011;12599;52.426;13.330;2022-08-03T08:16:49;6.20;;;2.33;;
24419;SDS011;12599;52.426;13.330;2022-08-03T08:19:15;2.37;;;2.00;;
24419;SDS011;12599;52.426;13.330;2022-08-03T08:21:41;5.67;;;2.20;;
24419;SDS011;12599;52.426;13.330;2022-08-03T08:24:07;7.47;;;2.73;;
24419;SDS011;12599;52.426;13.330;2022-08-03T08:26:33;2.27;;;2.07;;
24419;SDS011;12599;52.426;13.330;2022-08-03T08:28:59;9.87;;;2.83;;
24419;SDS011;12599;52.426;13.330;2022-08-03T08:31:24;3.13;;;1.97;;
24419;SDS011;12599;52.426;13.330;2022-08-03T08:33:50;4.80;;;2.00;;
24419;SDS011;12599;52.426;13.330;2022-08-03T08:36:16;2.97;;;1.73;;
24419;SDS011;12599;52.426;13.330;2022-08-03T08:38:41;3.03;;;2.10;;
24419;SDS011;12599;52.426;13.330;2022-08-03T08:41:09;5.90;;;2.57;;
24419;SDS011;12599;52.426;13.330;2022-08-03T08:43:35;4.87;;;2.57;;
24419;SDS011;12599;52.426;13.330;2022-08-03T08:46:01;3.90;;;1.90;;
24419;SDS011;12599;52.426;13.330;2022-08-03T08:48:27;3.67;;;2.00;;
24419;SDS011;12599;52.426;13.330;2022-08-03T08:50:54;4.53;;;2.37;;
24419;SDS011;12599;52.426;13.330;2022-08-03T08:53:21;3.93;;;2.30;;
24419;SDS011;12599;52.426;13.330;2022-08-03T08:55:50;4.50;;;2.27;;
24419;SDS011;12599;52.426;13.330;2022-08-03T08:58:16;4.20;;;2.13;;
24419;SDS011;12599;52.426;13.330;2022-08-03T09:00:45;5.40;;;2.13;;
24419;SDS011;12599;52.426;13.330;2022-08-03T09:03:12;5.37;;;1.87;;
24419;SDS011;12599;52.426;13.330;2022-08-03T09:05:40;4.40;;;2.13;;
24419;SDS011;12599;52.426;13.330;2022-08-03T09:08:06;4.83;;;2.30;;
24419;SDS011;12599;52.426;13.330;2022-08-03T09:10:32;5.13;;;2.37;;
24419;SDS011;12599;52.426;13.330;2022-08-03T09:12:58;2.47;;;1.90;;
24419;SDS011;12599;52.426;13.330;2022-08-03T09:15:25;5.20;;;2.00;;
24419;SDS011;12599;52.426;13.330;2022-08-03T09:17:54;5.00;;;2.00;;
24419;SDS011;12599;52.426;13.330;2022-08-03T09:20:21;2.83;;;1.80;;
24419;SDS011;12599;52.426;13.330;2022-08-03T09:22:52;3.60;;;2.10;;
24419;SDS011;12599;52.426;13.330;2022-08-03T09:25:25;2.27;;;2.07;;
24419;SDS011;12599;52.426;13.330;2022-08-03T09:28:08;3.77;;;2.20;;
24419;SDS011;12599;52.426;13.330;2022-08-03T09:30:36;3.07;;;1.97;;
24419;SDS011;12599;52.426;13.330;2022-08-03T09:33:11;4.07;;;2.20;;
24419;SDS011;12599;52.426;13.330;2022-08-03T09:35:46;4.27;;;2.17;;
24419;SDS011;12599;52.426;13.330;2022-08-03T09:38:14;3.20;;;1.80;;
24419;SDS011;12599;52.426;13.330;2022-08-03T09:40:48;1.90;;;1.60;;
24419;SDS011;12599;52.426;13.330;2022-08-03T09:43:14;3.43;;;1.77;;
24419;SDS011;12599;52.426;13.330;2022-08-03T09:45:40;3.87;;;2.03;;
24419;SDS011;12599;52.426;13.330;2022-08-03T09:48:22;6.00;;;4.10;;
24419;SDS011;12599;52.426;13.330;2022-08-03T09:51:00;4.37;;;2.50;;
24419;SDS011;12599;52.426;13.330;2022-08-03T09:53:30;4.13;;;2.20;;
24419;SDS011;12599;52.426;13.330;2022-08-03T09:56:09;4.20;;;2.27;;
24419;SDS011;12599;52.426;13.330;2022-08-03T09:58:38;3.20;;;1.50;;
24419;SDS011;12599;52.426;13.330;2022-08-03T10:01:10;2.50;;;2.13;;
24419;SDS011;12599;52.426;13.330;2022-08-03T10:03:37;5.30;;;2.47;;
24419;SDS011;12599;52.426;13.330;2022-08-03T10:06:13;9.80;;;2.00;;
24419;SDS011;12599;52.426;13.330;2022-08-03T10:09:09;2.50;;;1.77;;
24419;SDS011;12599;52.426;13.330;2022-08-03T10:11:35;2.70;;;1.90;;
24419;SDS011;12599;52.426;13.330;2022-08-03T10:14:03;2.57;;;1.77;;
24419;SDS011;12599;52.426;13.330;2022-08-03T10:16:32;3.60;;;2.03;;
24419;SDS011;12599;52.426;13.330;2022-08-03T10:19:05;1.80;;;1.67;;
24419;SDS011;12599;52.426;13.330;2022-08-03T10:21:37;3.37;;;1.77;;
24419;SDS011;12599;52.426;13.330;2022-08-03T10:24:05;1.90;;;1.80;;
24419;SDS011;12599;52.426;13.330;2022-08-03T10:26:33;4.33;;;1.80;;
24419;SDS011;12599;52.426;13.330;2022-08-03T10:29:02;3.70;;;1.97;;
24419;SDS011;12599;52.426;13.330;2022-08-03T10:31:34;3.03;;;1.87;;
24419;SDS011;12599;52.426;13.330;2022-08-03T10:34:03;4.70;;;1.90;;
24419;SDS011;12599;52.426;13.330;2022-08-03T10:36:32;3.40;;;2.10;;
24419;SDS011;12599;52.426;13.330;2022-08-03T10:38:59;4.63;;;1.73;;
24419;SDS011;12599;52.426;13.330;2022-08-03T10:41:30;6.87;;;2.03;;
24419;SDS011;12599;52.426;13.330;2022-08-03T10:44:10;3.23;;;1.80;;
24419;SDS011;12599;52.426;13.330;2022-08-03T10:46:41;3.27;;;1.80;;
24419;SDS011;12599;52.426;13.330;2022-08-03T10:49:11;3.63;;;2.07;;
24419;SDS011;12599;52.426;13.330;2022-08-03T10:51:38;3.90;;;1.70;;
24419;SDS011;12599;52.426;13.330;2022-08-03T10:54:05;3.27;;;2.00;;
24419;SDS011;12599;52.426;13.330;2022-08-03T10:59:19;2.63;;;1.93;;
24419;SDS011;12599;52.426;13.330;2022-08-03T11:02:23;2.57;;;1.97;;
24419;SDS011;12599;52.426;13.330;2022-08-03T11:05:28;5.40;;;2.13;;
24419;SDS011;12599;52.426;13.330;2022-08-03T11:10:42;3.77;;;2.30;;
24419;SDS011;12599;52.426;13.330;2022-08-03T11:13:08;3.87;;;2.43;;
24419;SDS011;12599;52.426;13.330;2022-08-03T11:15:36;4.37;;;2.13;;
24419;SDS011;12599;52.426;13.330;2022-08-03T11:18:08;2.03;;;1.80;;
24419;SDS011;12599;52.426;13.330;2022-08-03T11:23:19;2.73;;;1.77;;
24419;SDS011;12599;52.426;13.330;2022-08-03T11:26:12;2.10;;;1.70;;
24419;SDS011;12599;52.426;13.330;2022-08-03T11:28:39;2.43;;;1.80;;
24419;SDS011;12599;52.426;13.330;2022-08-03T11:34:06;2.73;;;1.67;;
24419;SDS011;12599;52.426;13.330;2022-08-03T11:39:43;2.73;;;2.00;;
24419;SDS011;12599;52.426;13.330;2022-08-03T11:47:18;3.83;;;1.80;;
24419;SDS011;12599;52.426;13.330;2022-08-03T11:49:48;2.57;;;1.93;;
24419;SDS011;12599;52.426;13.330;2022-08-03T11:52:15;2.20;;;1.90;;
24419;SDS011;12599;52.426;13.330;2022-08-03T11:54:42;3.17;;;1.80;;
24419;SDS011;12599;52.426;13.330;2022-08-03T11:57:08;3.53;;;2.10;;
24419;SDS011;12599;52.426;13.330;2022-08-03T11:59:34;3.47;;;1.87;;
24419;SDS011;12599;52.426;13.330;2022-08-03T12:02:11;2.67;;;1.70;;
24419;SDS011;12599;52.426;13.330;2022-08-03T12:04:54;3.67;;;2.00;;
24419;SDS011;12599;52.426;13.330;2022-08-03T12:07:25;3.17;;;1.90;;
24419;SDS011;12599;52.426;13.330;2022-08-03T12:12:37;3.57;;;1.70;;
24419;SDS011;12599;52.426;13.330;2022-08-03T12:15:05;2.63;;;1.70;;
24419;SDS011;12599;52.426;13.330;2022-08-03T12:17:32;2.67;;;1.60;;
24419;SDS011;12599;52.426;13.330;2022-08-03T12:19:59;3.67;;;2.17;;
24419;SDS011;12599;52.426;13.330;2022-08-03T12:22:35;2.10;;;1.80;;
24419;SDS011;12599;52.426;13.330;2022-08-03T12:25:02;3.13;;;1.57;;
24419;SDS011;12599;52.426;13.330;2022-08-03T12:27:32;5.17;;;1.93;;
24419;SDS011;12599;52.426;13.330;2022-08-03T12:29:58;4.03;;;1.70;;
24419;SDS011;12599;52.426;13.330;2022-08-03T12:32:25;3.27;;;1.97;;
24419;SDS011;12599;52.426;13.330;2022-08-03T12:34:51;1.80;;;1.70;;
24419;SDS011;12599;52.426;13.330;2022-08-03T12:37:18;2.77;;;1.77;;
24419;SDS011;12599;52.426;13.330;2022-08-03T12:39:48;4.93;;;3.10;;
24419;SDS011;12599;52.426;13.330;2022-08-03T12:42:18;2.90;;;1.90;;
24419;SDS011;12599;52.426;13.330;2022-08-03T12:44:44;2.13;;;1.90;;
24419;SDS011;12599;52.426;13.330;2022-08-03T12:47:12;5.63;;;1.90;;
24419;SDS011;12599;52.426;13.330;2022-08-03T12:49:46;1.50;;;1.40;;
24419;SDS011;12599;52.426;13.330;2022-08-03T12:52:14;1.90;;;1.67;;
24419;SDS011;12599;52.426;13.330;2022-08-03T12:54:40;3.50;;;1.60;;
24419;SDS011;12599;52.426;13.330;2022-08-03T12:59:43;1.93;;;1.60;;
24419;SDS011;12599;52.426;13.330;2022-08-03T13:02:13;1.80;;;1.70;;
24419;SDS011;12599;52.426;13.330;2022-08-03T13:04:45;2.03;;;1.83;;
24419;SDS011;12599;52.426;13.330;2022-08-03T13:07:13;1.37;;;1.27;;
24419;SDS011;12599;52.426;13.330;2022-08-03T13:09:44;1.77;;;1.60;;
24419;SDS011;12599;52.426;13.330;2022-08-03T13:12:18;2.70;;;1.73;;
24419;SDS011;12599;52.426;13.330;2022-08-03T13:14:47;1.60;;;1.50;;
24419;SDS011;12599;52.426;13.330;2022-08-03T13:17:15;2.23;;;1.60;;
24419;SDS011;12599;52.426;13.330;2022-08-03T13:19:41;3.90;;;1.70;;
24419;SDS011;12599;52.426;13.330;2022-08-03T13:22:14;5.93;;;1.70;;
24419;SDS011;12599;52.426;13.330;2022-08-03T13:24:45;1.70;;;1.60;;
24419;SDS011;12599;52.426;13.330;2022-08-03T13:27:12;2.83;;;1.70;;
24419;SDS011;12599;52.426;13.330;2022-08-03T13:29:38;2.70;;;1.77;;
24419;SDS011;12599;52.426;13.330;2022-08-03T13:32:04;1.77;;;1.50;;
24419;SDS011;12599;52.426;13.330;2022-08-03T13:34:31;2.90;;;2.07;;
24419;SDS011;12599;52.426;13.330;2022-08-03T13:36:57;1.77;;;1.67;;
24419;SDS011;12599;52.426;13.330;2022-08-03T13:39:22;1.60;;;1.50;;
24419;SDS011;12599;52.426;13.330;2022-08-03T13:41:48;3.27;;;1.80;;
24419;SDS011;12599;52.426;13.330;2022-08-03T13:44:13;3.13;;;1.60;;
24419;SDS011;12599;52.426;13.330;2022-08-03T13:46:39;3.37;;;1.73;;
24419;SDS011;12599;52.426;13.330;2022-08-03T13:49:06;1.50;;;1.40;;
24419;SDS011;12599;52.426;13.330;2022-08-03T13:51:32;3.57;;;1.80;;
24419;SDS011;12599;52.426;13.330;2022-08-03T13:53:58;2.07;;;1.67;;
24419;SDS011;12599;52.426;13.330;2022-08-03T13:56:27;2.37;;;1.60;;
24419;SDS011;12599;52.426;13.330;2022-08-03T13:58:54;1.83;;;1.73;;
24419;SDS011;12599;52.426;13.330;2022-08-03T14:01:20;2.70;;;1.70;;
24419;SDS011;12599;52.426;13.330;2022-08-03T14:03:46;2.40;;;1.77;;
24419;SDS011;12599;52.426;13.330;2022-08-03T14:06:16;2.53;;;1.97;;
24419;SDS011;12599;52.426;13.330;2022-08-03T14:08:42;3.30;;;1.87;;
24419;SDS011;12599;52.426;13.330;2022-08-03T14:11:08;1.77;;;1.63;;
24419;SDS011;12599;52.426;13.330;2022-08-03T14:13:34;4.67;;;1.77;;
24419;SDS011;12599;52.426;13.330;2022-08-03T14:16:00;2.90;;;1.93;;
24419;SDS011;12599;52.426;13.330;2022-08-03T14:18:25;2.27;;;1.70;;
24419;SDS011;12599;52.426;13.330;2022-08-03T14:20:51;2.63;;;1.63;;
24419;SDS011;12599;52.426;13.330;2022-08-03T14:23:16;2.90;;;1.40;;
24419;SDS011;12599;52.426;13.330;2022-08-03T14:25:42;3.27;;;1.60;;
24419;SDS011;12599;52.426;13.330;2022-08-03T14:28:08;4.50;;;1.77;;
24419;SDS011;12599;52.426;13.330;2022-08-03T14:30:33;1.60;;;1.50;;
24419;SDS011;12599;52.426;13.330;2022-08-03T14:32:59;2.63;;;1.77;;
24419;SDS011;12599;52.426;13.330;2022-08-03T14:35:25;3.90;;;1.73;;
24419;SDS011;12599;52.426;13.330;2022-08-03T14:37:51;2.60;;;1.80;;
24419;SDS011;12599;52.426;13.330;2022-08-03T14:40:17;2.80;;;2.00;;
24419;SDS011;12599;52.426;13.330;2022-08-03T14:42:43;1.93;;;1.80;;
24419;SDS011;12599;52.426;13.330;2022-08-03T14:45:09;2.83;;;1.60;;
24419;SDS011;12599;52.426;13.330;2022-08-03T14:47:35;2.50;;;1.80;;
24419;SDS011;12599;52.426;13.330;2022-08-03T14:50:01;1.70;;;1.60;;
24419;SDS011;12599;52.426;13.330;2022-08-03T14:52:29;2.67;;;2.00;;
24419;SDS011;12599;52.426;13.330;2022-08-03T14:54:55;2.70;;;1.80;;
24419;SDS011;12599;52.426;13.330;2022-08-03T14:57:22;2.93;;;1.67;;
24419;SDS011;12599;52.426;13.330;2022-08-03T14:59:47;1.90;;;1.77;;
24419;SDS011;12599;52.426;13.330;2022-08-03T15:02:13;3.83;;;1.87;;
24419;SDS011;12599;52.426;13.330;2022-08-03T15:04:38;2.27;;;1.83;;
24419;SDS011;12599;52.426;13.330;2022-08-03T15:07:04;2.90;;;1.90;;
24419;SDS011;12599;52.426;13.330;2022-08-03T15:09:30;1.83;;;1.73;;
24419;SDS011;12599;52.426;13.330;2022-08-03T15:11:56;1.88;;;1.77;;
24419;SDS011;12599;52.426;13.330;2022-08-03T15:14:22;3.85;;;2.35;;
24419;SDS011;12599;52.426;13.330;2022-08-03T15:16:47;2.67;;;2.10;;